• Join FlightAware (Why Join?)
  • Login
  • US Flag 
 
04:45PM EST


 

Airport Tracker/Info


-or-


 

Live Flight TrackerFlight Track Log ✈ UAL4380 ✈ 21-Apr-2013 ✈ KMOB - KIAH

Flight Track Log - Related Links

Times and Time Zones

All times are in EDT time to prevent confusion due to time zone crossing. See the UAL4380 flight status page for this flight to view local times or setup timezone preferences in your user account.

Time Position Orientation Groundspeed Altitude Reporting Facility
EDT Latitude Longitude Course Direction KTS MPH feet Rate Location/Type
10:05AM 30.6244 -88.2508 250° West 245 282 3,500  Level Houston Center
10:06AM 30.5950 -88.3217 244° Southwest 251 289 5,900 2,640 Climbing Houston Center
10:07AM 30.5958 -88.4058 271° West 258 297 8,900 2,220 Climbing Houston Center
10:08AM 30.5970 -88.6943 252° West  Level FlightAware Approximate
10:08AM 30.5981 -88.5075 271° West 263 303 10,500  Level Houston Center
10:09AM 30.5711 -88.7895 252° West  Level FlightAware Approximate
10:09AM 30.5997 -88.6122 271° West 316 364 11,600  Level Houston Center
10:10AM 30.5329 -88.8847 250° West  Level FlightAware Approximate
10:10AM 30.5978 -88.7211 269° West 334 384 13,100  Level Houston Center
10:11AM 30.5639 -88.8233 249° West 339 390 14,800 1,560 Climbing Houston Center
10:12AM 30.5292 -88.9258 249° West 340 391 16,400 1,380 Climbing Houston Center
10:13AM 30.4931 -89.0336 249° West 339 390 17,700 1,320 Climbing Houston Center
10:14AM 30.4581 -89.1353 248° West 339 390 19,100 1,380 Climbing Houston Center
10:15AM 30.4233 -89.2347 248° West 335 386 20,600 1,380 Climbing Houston Center
10:16AM 30.3892 -89.3342 248° West 333 383 22,000 1,320 Climbing Houston Center
10:17AM 30.3547 -89.4317 248° West 329 379 23,400 1,380 Climbing Houston Center
10:18AM 30.3203 -89.5297 248° West 328 377 24,900 1,380 Climbing Houston Center
10:19AM 30.2864 -89.6267 248° West 323 372 26,300 1,320 Climbing Houston Center
10:20AM 30.2508 -89.7214 247° West 317 365 27,700 1,380 Climbing Houston Center
10:21AM 30.2175 -89.8158 248° West 312 359 29,200 1,380 Climbing Houston Center
10:22AM 30.1806 -89.9250 249° West 304 350 30,600 1,140 Climbing Houston Center
10:24AM 30.1489 -90.0183 249° West 308 354 31,600 660 Climbing Houston Center
10:25AM 30.1139 -90.1147 247° West 320 368 32,000 180 Climbing Houston Center
10:26AM 30.0769 -90.2192 248° West 341 392 32,000  Level Houston Center
10:27AM 30.0392 -90.3250 248° West 354 407 32,000  Level Houston Center
10:28AM 30.0008 -90.4314 247° West 358 412 32,000  Level Houston Center
10:29AM 29.9628 -90.5356 247° West 356 410 32,000  Level Houston Center
10:30AM 29.9256 -90.6381 247° West 350 403 32,000  Level Houston Center
10:31AM 29.9028 -90.7478 257° West 347 399 32,000  Level Houston Center
10:32AM 29.8822 -90.8808 260° West 351 404 32,000  Level Houston Center
10:33AM 29.8622 -90.9936 258° West 357 411 32,000  Level Houston Center
10:34AM 29.8428 -91.1067 259° West 360 414 32,000  Level Houston Center
10:35AM 29.8231 -91.2200 259° West 362 417 32,000  Level Houston Center
10:36AM 29.8025 -91.3333 258° West 362 417 32,000  Level Houston Center
10:37AM 29.7836 -91.4461 259° West 361 415 32,000  Level Houston Center
10:38AM 29.7639 -91.5594 259° West 362 417 32,000  Level Houston Center
10:39AM 29.7406 -91.6956 259° West 362 417 32,000  Level Houston Center
10:40AM 29.7211 -91.7911 257° West 363 418 32,000  Level Houston Center
10:41AM 29.6967 -91.9261 258° West 362 417 32,000  Level Houston Center
10:42AM 29.6761 -92.0397 258° West 362 417 32,000  Level Houston Center
10:43AM 29.6558 -92.1533 258° West 364 419 32,000  Level Houston Center
10:44AM 29.6356 -92.2669 258° West 364 419 32,000  Level Houston Center
10:45AM 29.6139 -92.3800 258° West 363 418 32,000  Level Houston Center
10:46AM 29.5942 -92.4936 259° West 363 418 32,000  Level Houston Center
10:47AM 29.5725 -92.6064 258° West 362 417 32,000  Level Houston Center
10:48AM 29.5519 -92.7189 258° West 361 415 32,000 -180 Level Houston Center
10:49AM 29.5275 -92.8544 258° West 361 415 31,700 -660 Descending Houston Center
10:50AM 29.5056 -92.9667 257° West 361 415 30,700 -1,080 Descending Houston Center
10:51AM 29.4864 -93.0822 259° West 367 422 29,600 -1,080 Descending Houston Center
10:52AM 29.4900 -93.2031 272° West 375 432 28,600 -1,020 Descending Houston Center
10:53AM 29.4956 -93.3244 273° West 379 436 27,500 -1,320 Descending Houston Center
10:54AM 29.5006 -93.4483 273° West 387 445 26,000 -1,620 Descending Houston Center
10:55AM 29.5053 -93.5733 273° West 390 449 24,300 -1,740 Descending Houston Center
10:56AM 29.5092 -93.6969 272° West 389 448 22,500 -1,860 Descending Houston Center
10:57AM 29.5144 -93.8139 273° West 377 434 20,600 -2,040 Descending Houston Center
10:58AM 29.5194 -93.9539 272° West 368 423 18,300 -2,040 Descending Houston Center
10:59AM 29.5233 -94.0667 272° West 358 412 16,500 -1,860 Descending Houston Center
11:00AM 29.5264 -94.1611 272° West 344 396 14,800 -1,740 Descending Houston Center
11:02AM 29.5311 -94.2886 272° West 337 388 13,000 -1,200 Descending Houston Center
11:03AM 29.5544 -94.3919 285° West 354 407 12,200 -900 Descending Houston Center
11:04AM 29.5992 -94.4981 296° West 370 426 11,200 -840 Descending Houston Center
11:05AM 29.6431 -94.6019 296° West 365 420 10,500 -600 Descending Houston Center
11:06AM 29.6881 -94.7056 297° West 365 420 10,000 -300 Descending Houston Center
11:07AM 29.7308 -94.8069 296° West 358 412 10,000  Level Houston Center
11:08AM 29.7822 -94.9269 296° West 343 395 10,000 -660 Level Houston Center
11:09AM 29.8206 -95.0211 295° West 273 314 8,700 -1,500 Descending Houston Center
11:10AM 29.8531 -95.1014 295° West 270 311 6,800 -1,380 Descending Houston Center
11:11AM 29.8856 -95.1769 296° West 264 304 6,000 -420 Descending Houston Center
11:12AM 29.8989 -95.2547 281° West 259 298 6,000  Level Houston Center
11:13AM 29.9008 -95.3578 271° West 263 303 6,000  Level Houston Center
11:14AM 29.9000 -95.4258 269° West 242 278 6,000 -420 Level Houston Center
11:15AM 29.9011 -95.4858 271° West 205 236 5,300 -840 Descending Houston Center
11:15AM 29.9011 -95.5006 270° West 218 251 5,000 -1,380 Descending Houston Center
11:16AM 29.9192 -95.5439 296° West 234 269 3,900 -1,260 Descending Houston Center
11:16AM 29.9314 -95.5458 352° North 224 258 3,700 -840 Descending Houston Center
11:17AM 29.9806 -95.5269 18° North 217 250 3,000 -900 Descending Houston Center